sensor_id;sensor_type;location;lat;lon;timestamp;temperature;humidity
7576;DHT22;3829;50.798;4.358;2023-04-15T00:00:29;10.30;99.90
7576;DHT22;3829;50.798;4.358;2023-04-15T00:02:55;10.30;99.90
7576;DHT22;3829;50.798;4.358;2023-04-15T00:05:21;10.40;99.90
7576;DHT22;3829;50.798;4.358;2023-04-15T00:07:46;10.40;99.90
7576;DHT22;3829;50.798;4.358;2023-04-15T00:10:12;10.50;99.90
7576;DHT22;3829;50.798;4.358;2023-04-15T00:12:39;10.60;99.90
7576;DHT22;3829;50.798;4.358;2023-04-15T00:15:06;10.70;99.90
7576;DHT22;3829;50.798;4.358;2023-04-15T00:17:32;10.70;99.90
7576;DHT22;3829;50.798;4.358;2023-04-15T00:19:58;10.80;99.90
7576;DHT22;3829;50.798;4.358;2023-04-15T00:22:25;10.80;99.90
7576;DHT22;3829;50.798;4.358;2023-04-15T00:24:52;10.80;99.90
7576;DHT22;3829;50.798;4.358;2023-04-15T00:27:17;10.70;99.90
7576;DHT22;3829;50.798;4.358;2023-04-15T00:29:43;10.60;99.90
7576;DHT22;3829;50.798;4.358;2023-04-15T00:32:09;10.60;99.90
7576;DHT22;3829;50.798;4.358;2023-04-15T00:34:35;10.60;99.90
7576;DHT22;3829;50.798;4.358;2023-04-15T00:37:01;10.50;99.90
7576;DHT22;3829;50.798;4.358;2023-04-15T00:39:27;10.50;99.90
7576;DHT22;3829;50.798;4.358;2023-04-15T00:41:52;10.30;99.90
7576;DHT22;3829;50.798;4.358;2023-04-15T00:44:19;10.20;99.90
7576;DHT22;3829;50.798;4.358;2023-04-15T00:46:45;10.10;99.90
7576;DHT22;3829;50.798;4.358;2023-04-15T00:49:11;10.10;99.90
7576;DHT22;3829;50.798;4.358;2023-04-15T00:51:37;10.10;99.90
7576;DHT22;3829;50.798;4.358;2023-04-15T00:54:03;10.10;99.90
7576;DHT22;3829;50.798;4.358;2023-04-15T00:56:30;10.00;99.90
7576;DHT22;3829;50.798;4.358;2023-04-15T00:58:59;9.90;99.90
7576;DHT22;3829;50.798;4.358;2023-04-15T01:01:26;9.90;99.90
7576;DHT22;3829;50.798;4.358;2023-04-15T01:03:55;9.70;99.90
7576;DHT22;3829;50.798;4.358;2023-04-15T01:06:21;9.70;99.90
7576;DHT22;3829;50.798;4.358;2023-04-15T01:08:49;9.70;99.90
7576;DHT22;3829;50.798;4.358;2023-04-15T01:11:16;9.70;99.90
7576;DHT22;3829;50.798;4.358;2023-04-15T01:13:42;9.80;99.90
7576;DHT22;3829;50.798;4.358;2023-04-15T01:16:08;9.70;99.90
7576;DHT22;3829;50.798;4.358;2023-04-15T01:18:35;9.70;99.90
7576;DHT22;3829;50.798;4.358;2023-04-15T01:21:02;9.70;99.90
7576;DHT22;3829;50.798;4.358;2023-04-15T01:23:29;9.80;99.90
7576;DHT22;3829;50.798;4.358;2023-04-15T01:25:55;9.70;99.90
7576;DHT22;3829;50.798;4.358;2023-04-15T01:28:21;9.70;99.90
7576;DHT22;3829;50.798;4.358;2023-04-15T01:30:46;9.70;99.90
7576;DHT22;3829;50.798;4.358;2023-04-15T01:33:13;9.70;99.90
7576;DHT22;3829;50.798;4.358;2023-04-15T01:35:38;9.70;99.90
7576;DHT22;3829;50.798;4.358;2023-04-15T01:38:06;9.70;99.90
7576;DHT22;3829;50.798;4.358;2023-04-15T01:40:33;9.80;99.90
7576;DHT22;3829;50.798;4.358;2023-04-15T01:42:59;9.80;99.90
7576;DHT22;3829;50.798;4.358;2023-04-15T01:45:25;9.80;99.90
7576;DHT22;3829;50.798;4.358;2023-04-15T01:47:51;9.70;99.90
7576;DHT22;3829;50.798;4.358;2023-04-15T01:50:17;9.70;99.90
7576;DHT22;3829;50.798;4.358;2023-04-15T01:52:44;9.60;99.90
7576;DHT22;3829;50.798;4.358;2023-04-15T01:55:11;9.60;99.90
7576;DHT22;3829;50.798;4.358;2023-04-15T01:57:36;9.60;99.90
7576;DHT22;3829;50.798;4.358;2023-04-15T02:00:02;9.50;99.90
7576;DHT22;3829;50.798;4.358;2023-04-15T02:02:28;9.40;99.90
7576;DHT22;3829;50.798;4.358;2023-04-15T02:04:53;9.40;99.90
7576;DHT22;3829;50.798;4.358;2023-04-15T02:07:20;9.50;99.90
7576;DHT22;3829;50.798;4.358;2023-04-15T02:09:46;9.50;99.90
7576;DHT22;3829;50.798;4.358;2023-04-15T02:12:12;9.50;99.90
7576;DHT22;3829;50.798;4.358;2023-04-15T02:14:38;9.40;99.90
7576;DHT22;3829;50.798;4.358;2023-04-15T02:17:03;9.50;99.90
7576;DHT22;3829;50.798;4.358;2023-04-15T02:19:33;9.50;99.90
7576;DHT22;3829;50.798;4.358;2023-04-15T02:21:59;9.50;99.90
7576;DHT22;3829;50.798;4.358;2023-04-15T02:24:27;9.60;99.90
7576;DHT22;3829;50.798;4.358;2023-04-15T02:26:53;9.70;99.90
7576;DHT22;3829;50.798;4.358;2023-04-15T02:29:18;9.70;99.90
7576;DHT22;3829;50.798;4.358;2023-04-15T02:31:44;9.70;99.90
7576;DHT22;3829;50.798;4.358;2023-04-15T02:34:10;9.60;99.90
7576;DHT22;3829;50.798;4.358;2023-04-15T02:36:36;9.60;99.90
7576;DHT22;3829;50.798;4.358;2023-04-15T02:39:02;9.60;99.90
7576;DHT22;3829;50.798;4.358;2023-04-15T02:41:28;9.50;99.90
7576;DHT22;3829;50.798;4.358;2023-04-15T02:43:54;9.50;99.90
7576;DHT22;3829;50.798;4.358;2023-04-15T02:46:21;9.60;99.90
7576;DHT22;3829;50.798;4.358;2023-04-15T02:48:50;9.50;99.90
7576;DHT22;3829;50.798;4.358;2023-04-15T02:51:19;9.50;99.90
7576;DHT22;3829;50.798;4.358;2023-04-15T02:53:46;9.40;99.90
7576;DHT22;3829;50.798;4.358;2023-04-15T02:56:11;9.40;99.90
7576;DHT22;3829;50.798;4.358;2023-04-15T02:58:39;9.50;99.90
7576;DHT22;3829;50.798;4.358;2023-04-15T03:01:05;9.50;99.90
7576;DHT22;3829;50.798;4.358;2023-04-15T03:03:33;9.50;99.90
7576;DHT22;3829;50.798;4.358;2023-04-15T03:05:59;9.50;99.90
7576;DHT22;3829;50.798;4.358;2023-04-15T03:08:24;9.50;99.90
7576;DHT22;3829;50.798;4.358;2023-04-15T03:10:50;9.50;99.90
7576;DHT22;3829;50.798;4.358;2023-04-15T03:13:17;9.50;99.90
7576;DHT22;3829;50.798;4.358;2023-04-15T03:15:45;9.50;99.90
7576;DHT22;3829;50.798;4.358;2023-04-15T03:18:10;9.50;99.90
7576;DHT22;3829;50.798;4.358;2023-04-15T03:20:36;9.40;99.90
7576;DHT22;3829;50.798;4.358;2023-04-15T03:23:02;9.40;99.90
7576;DHT22;3829;50.798;4.358;2023-04-15T03:25:27;9.30;99.90
7576;DHT22;3829;50.798;4.358;2023-04-15T03:27:53;9.40;99.90
7576;DHT22;3829;50.798;4.358;2023-04-15T03:30:18;9.30;99.90
7576;DHT22;3829;50.798;4.358;2023-04-15T03:32:44;9.30;99.90
7576;DHT22;3829;50.798;4.358;2023-04-15T03:35:10;9.30;99.90
7576;DHT22;3829;50.798;4.358;2023-04-15T03:37:36;9.30;99.90
7576;DHT22;3829;50.798;4.358;2023-04-15T03:40:01;9.30;99.90
7576;DHT22;3829;50.798;4.358;2023-04-15T03:42:27;9.40;99.90
7576;DHT22;3829;50.798;4.358;2023-04-15T03:44:53;9.40;99.90
7576;DHT22;3829;50.798;4.358;2023-04-15T03:47:18;9.30;99.90
7576;DHT22;3829;50.798;4.358;2023-04-15T03:49:44;9.20;99.90
7576;DHT22;3829;50.798;4.358;2023-04-15T03:52:09;9.20;99.90
7576;DHT22;3829;50.798;4.358;2023-04-15T03:54:35;9.10;99.90
7576;DHT22;3829;50.798;4.358;2023-04-15T03:57:01;9.10;99.90
7576;DHT22;3829;50.798;4.358;2023-04-15T03:59:26;9.00;99.90
7576;DHT22;3829;50.798;4.358;2023-04-15T04:01:52;9.00;99.90
7576;DHT22;3829;50.798;4.358;2023-04-15T04:04:17;8.80;99.90
7576;DHT22;3829;50.798;4.358;2023-04-15T04:06:43;8.80;99.90
7576;DHT22;3829;50.798;4.358;2023-04-15T04:09:09;8.90;99.90
7576;DHT22;3829;50.798;4.358;2023-04-15T04:11:34;8.70;99.90
7576;DHT22;3829;50.798;4.358;2023-04-15T04:14:01;8.80;99.90
7576;DHT22;3829;50.798;4.358;2023-04-15T04:16:27;8.90;99.90
7576;DHT22;3829;50.798;4.358;2023-04-15T04:18:53;8.90;99.90
7576;DHT22;3829;50.798;4.358;2023-04-15T04:21:18;9.00;99.90
7576;DHT22;3829;50.798;4.358;2023-04-15T04:23:45;8.90;99.90
7576;DHT22;3829;50.798;4.358;2023-04-15T04:26:11;8.90;99.90
7576;DHT22;3829;50.798;4.358;2023-04-15T04:28:36;9.00;99.90
7576;DHT22;3829;50.798;4.358;2023-04-15T04:31:05;9.00;99.90
7576;DHT22;3829;50.798;4.358;2023-04-15T04:33:31;8.90;99.90
7576;DHT22;3829;50.798;4.358;2023-04-15T04:35:56;8.90;99.90
7576;DHT22;3829;50.798;4.358;2023-04-15T04:38:22;9.00;99.90
7576;DHT22;3829;50.798;4.358;2023-04-15T04:40:47;9.00;99.90
7576;DHT22;3829;50.798;4.358;2023-04-15T04:43:13;8.90;99.90
7576;DHT22;3829;50.798;4.358;2023-04-15T04:45:40;8.90;99.90
7576;DHT22;3829;50.798;4.358;2023-04-15T04:48:06;8.90;99.90
7576;DHT22;3829;50.798;4.358;2023-04-15T04:50:33;8.80;99.90
7576;DHT22;3829;50.798;4.358;2023-04-15T04:53:00;8.80;99.90
7576;DHT22;3829;50.798;4.358;2023-04-15T04:55:25;8.80;99.90
7576;DHT22;3829;50.798;4.358;2023-04-15T04:57:51;8.70;99.90
7576;DHT22;3829;50.798;4.358;2023-04-15T05:00:17;8.80;99.90
7576;DHT22;3829;50.798;4.358;2023-04-15T05:02:42;8.80;99.90
7576;DHT22;3829;50.798;4.358;2023-04-15T05:05:09;8.90;99.90
7576;DHT22;3829;50.798;4.358;2023-04-15T05:07:34;8.80;99.90
7576;DHT22;3829;50.798;4.358;2023-04-15T05:10:00;8.90;99.90
7576;DHT22;3829;50.798;4.358;2023-04-15T05:12:26;8.90;99.90
7576;DHT22;3829;50.798;4.358;2023-04-15T05:14:51;8.90;99.90
7576;DHT22;3829;50.798;4.358;2023-04-15T05:17:17;9.00;99.90
7576;DHT22;3829;50.798;4.358;2023-04-15T05:19:42;9.10;99.90
7576;DHT22;3829;50.798;4.358;2023-04-15T05:22:08;9.10;99.90
7576;DHT22;3829;50.798;4.358;2023-04-15T05:24:33;9.10;99.90
7576;DHT22;3829;50.798;4.358;2023-04-15T05:26:59;9.10;99.90
7576;DHT22;3829;50.798;4.358;2023-04-15T05:29:26;9.10;99.90
7576;DHT22;3829;50.798;4.358;2023-04-15T05:31:51;9.20;99.90
7576;DHT22;3829;50.798;4.358;2023-04-15T05:34:17;9.30;99.90
7576;DHT22;3829;50.798;4.358;2023-04-15T05:36:42;9.30;99.90
7576;DHT22;3829;50.798;4.358;2023-04-15T05:39:08;9.20;99.90
7576;DHT22;3829;50.798;4.358;2023-04-15T05:41:34;9.30;99.90
7576;DHT22;3829;50.798;4.358;2023-04-15T05:43:59;9.40;99.90
7576;DHT22;3829;50.798;4.358;2023-04-15T05:46:25;9.40;99.90
7576;DHT22;3829;50.798;4.358;2023-04-15T05:48:51;9.30;99.90
7576;DHT22;3829;50.798;4.358;2023-04-15T05:51:17;9.40;99.90
7576;DHT22;3829;50.798;4.358;2023-04-15T05:53:43;9.50;99.90
7576;DHT22;3829;50.798;4.358;2023-04-15T05:56:08;9.50;99.90
7576;DHT22;3829;50.798;4.358;2023-04-15T05:58:34;9.30;99.90
7576;DHT22;3829;50.798;4.358;2023-04-15T06:01:00;9.40;99.90
7576;DHT22;3829;50.798;4.358;2023-04-15T06:03:25;9.50;99.90
7576;DHT22;3829;50.798;4.358;2023-04-15T06:05:51;9.60;99.90
7576;DHT22;3829;50.798;4.358;2023-04-15T06:08:17;9.40;99.90
7576;DHT22;3829;50.798;4.358;2023-04-15T06:10:43;9.60;99.90
7576;DHT22;3829;50.798;4.358;2023-04-15T06:13:09;9.70;99.90
7576;DHT22;3829;50.798;4.358;2023-04-15T06:15:34;9.80;99.90
7576;DHT22;3829;50.798;4.358;2023-04-15T06:18:00;10.00;99.90
7576;DHT22;3829;50.798;4.358;2023-04-15T06:20:25;10.00;99.90
7576;DHT22;3829;50.798;4.358;2023-04-15T06:22:51;10.00;99.90
7576;DHT22;3829;50.798;4.358;2023-04-15T06:25:17;10.00;99.90
7576;DHT22;3829;50.798;4.358;2023-04-15T06:27:42;9.90;99.90
7576;DHT22;3829;50.798;4.358;2023-04-15T06:30:08;9.90;99.90
7576;DHT22;3829;50.798;4.358;2023-04-15T06:32:34;10.00;99.90
7576;DHT22;3829;50.798;4.358;2023-04-15T06:35:00;10.10;99.90
7576;DHT22;3829;50.798;4.358;2023-04-15T06:37:25;10.10;99.90
7576;DHT22;3829;50.798;4.358;2023-04-15T06:39:51;10.10;99.90
7576;DHT22;3829;50.798;4.358;2023-04-15T06:42:17;10.30;99.90
7576;DHT22;3829;50.798;4.358;2023-04-15T06:44:42;10.40;99.90
7576;DHT22;3829;50.798;4.358;2023-04-15T06:47:08;10.50;99.90
7576;DHT22;3829;50.798;4.358;2023-04-15T06:49:34;10.50;99.90
7576;DHT22;3829;50.798;4.358;2023-04-15T06:52:00;10.60;99.90
7576;DHT22;3829;50.798;4.358;2023-04-15T06:54:26;10.80;99.90
7576;DHT22;3829;50.798;4.358;2023-04-15T06:56:51;11.00;99.90
7576;DHT22;3829;50.798;4.358;2023-04-15T06:59:17;11.20;99.90
7576;DHT22;3829;50.798;4.358;2023-04-15T07:01:43;11.20;99.90
7576;DHT22;3829;50.798;4.358;2023-04-15T07:04:09;11.20;99.90
7576;DHT22;3829;50.798;4.358;2023-04-15T07:06:35;11.10;99.90
7576;DHT22;3829;50.798;4.358;2023-04-15T07:09:02;11.00;99.90
7576;DHT22;3829;50.798;4.358;2023-04-15T07:11:29;10.90;99.90
7576;DHT22;3829;50.798;4.358;2023-04-15T07:13:54;10.70;99.90
7576;DHT22;3829;50.798;4.358;2023-04-15T07:16:20;10.90;99.90
7576;DHT22;3829;50.798;4.358;2023-04-15T07:18:46;11.20;99.90
7576;DHT22;3829;50.798;4.358;2023-04-15T07:21:12;11.20;99.90
7576;DHT22;3829;50.798;4.358;2023-04-15T07:23:37;11.30;99.90
7576;DHT22;3829;50.798;4.358;2023-04-15T07:26:03;11.30;99.90
7576;DHT22;3829;50.798;4.358;2023-04-15T07:28:29;11.40;99.90
7576;DHT22;3829;50.798;4.358;2023-04-15T07:30:55;11.50;99.90
7576;DHT22;3829;50.798;4.358;2023-04-15T07:33:22;11.60;99.90
7576;DHT22;3829;50.798;4.358;2023-04-15T07:35:47;11.60;99.90
7576;DHT22;3829;50.798;4.358;2023-04-15T07:38:13;11.70;99.90
7576;DHT22;3829;50.798;4.358;2023-04-15T07:40:39;11.60;99.90
7576;DHT22;3829;50.798;4.358;2023-04-15T07:43:05;11.50;99.90
7576;DHT22;3829;50.798;4.358;2023-04-15T07:45:31;11.60;99.90
7576;DHT22;3829;50.798;4.358;2023-04-15T07:47:56;11.70;99.90
7576;DHT22;3829;50.798;4.358;2023-04-15T07:50:22;11.90;99.90
7576;DHT22;3829;50.798;4.358;2023-04-15T07:52:49;12.00;99.90
7576;DHT22;3829;50.798;4.358;2023-04-15T07:55:15;12.00;99.90
7576;DHT22;3829;50.798;4.358;2023-04-15T07:57:43;11.50;99.90
7576;DHT22;3829;50.798;4.358;2023-04-15T08:00:09;11.50;99.90
7576;DHT22;3829;50.798;4.358;2023-04-15T08:02:35;11.50;99.90
7576;DHT22;3829;50.798;4.358;2023-04-15T08:05:01;11.50;99.90
7576;DHT22;3829;50.798;4.358;2023-04-15T08:07:28;11.30;99.90
7576;DHT22;3829;50.798;4.358;2023-04-15T08:09:54;11.20;99.90
7576;DHT22;3829;50.798;4.358;2023-04-15T08:12:20;11.20;99.90
7576;DHT22;3829;50.798;4.358;2023-04-15T08:14:46;10.90;99.90
7576;DHT22;3829;50.798;4.358;2023-04-15T08:17:11;10.70;99.90
7576;DHT22;3829;50.798;4.358;2023-04-15T08:19:37;10.80;99.90
7576;DHT22;3829;50.798;4.358;2023-04-15T08:22:03;10.80;99.90
7576;DHT22;3829;50.798;4.358;2023-04-15T08:24:30;10.90;99.90
7576;DHT22;3829;50.798;4.358;2023-04-15T08:26:56;11.00;99.90
7576;DHT22;3829;50.798;4.358;2023-04-15T08:29:22;11.20;99.90
7576;DHT22;3829;50.798;4.358;2023-04-15T08:31:48;11.50;99.90
7576;DHT22;3829;50.798;4.358;2023-04-15T08:34:14;11.70;99.90
7576;DHT22;3829;50.798;4.358;2023-04-15T08:36:41;11.80;99.90
7576;DHT22;3829;50.798;4.358;2023-04-15T08:39:07;11.90;99.90
7576;DHT22;3829;50.798;4.358;2023-04-15T08:41:46;12.00;99.90
7576;DHT22;3829;50.798;4.358;2023-04-15T08:44:13;12.20;99.90
7576;DHT22;3829;50.798;4.358;2023-04-15T08:46:40;12.30;99.90
7576;DHT22;3829;50.798;4.358;2023-04-15T08:49:09;12.40;99.90
7576;DHT22;3829;50.798;4.358;2023-04-15T08:51:36;12.50;99.90
7576;DHT22;3829;50.798;4.358;2023-04-15T08:54:03;13.00;99.90
7576;DHT22;3829;50.798;4.358;2023-04-15T08:56:30;13.20;99.90
7576;DHT22;3829;50.798;4.358;2023-04-15T08:59:00;13.30;99.90
7576;DHT22;3829;50.798;4.358;2023-04-15T09:01:26;13.60;99.90
7576;DHT22;3829;50.798;4.358;2023-04-15T09:03:52;13.90;99.90
7576;DHT22;3829;50.798;4.358;2023-04-15T09:06:22;14.00;99.90
7576;DHT22;3829;50.798;4.358;2023-04-15T09:08:49;14.00;99.90
7576;DHT22;3829;50.798;4.358;2023-04-15T09:11:16;13.90;99.90
7576;DHT22;3829;50.798;4.358;2023-04-15T09:13:42;13.80;99.90
7576;DHT22;3829;50.798;4.358;2023-04-15T09:16:08;13.80;99.90
7576;DHT22;3829;50.798;4.358;2023-04-15T09:18:35;13.90;99.90
7576;DHT22;3829;50.798;4.358;2023-04-15T09:21:19;14.00;99.90
7576;DHT22;3829;50.798;4.358;2023-04-15T09:23:57;14.10;99.90
7576;DHT22;3829;50.798;4.358;2023-04-15T09:26:52;14.00;99.90
7576;DHT22;3829;50.798;4.358;2023-04-15T09:29:23;14.00;99.90
7576;DHT22;3829;50.798;4.358;2023-04-15T09:31:49;14.10;99.90
7576;DHT22;3829;50.798;4.358;2023-04-15T09:34:15;14.10;99.90
7576;DHT22;3829;50.798;4.358;2023-04-15T09:37:01;14.20;99.90
7576;DHT22;3829;50.798;4.358;2023-04-15T09:39:26;14.20;99.90
7576;DHT22;3829;50.798;4.358;2023-04-15T09:42:07;14.40;99.90
7576;DHT22;3829;50.798;4.358;2023-04-15T09:44:33;14.50;99.90
7576;DHT22;3829;50.798;4.358;2023-04-15T09:46:59;14.60;99.90
7576;DHT22;3829;50.798;4.358;2023-04-15T09:49:25;14.60;99.90
7576;DHT22;3829;50.798;4.358;2023-04-15T09:51:50;14.70;99.90
7576;DHT22;3829;50.798;4.358;2023-04-15T09:54:19;14.90;99.90
7576;DHT22;3829;50.798;4.358;2023-04-15T09:56:46;15.10;99.90
7576;DHT22;3829;50.798;4.358;2023-04-15T09:59:12;15.10;99.90
7576;DHT22;3829;50.798;4.358;2023-04-15T10:01:39;14.90;99.90
7576;DHT22;3829;50.798;4.358;2023-04-15T10:04:08;15.00;99.90
7576;DHT22;3829;50.798;4.358;2023-04-15T10:06:38;14.90;99.90
7576;DHT22;3829;50.798;4.358;2023-04-15T10:09:05;14.90;99.90
7576;DHT22;3829;50.798;4.358;2023-04-15T10:11:32;14.90;99.90
7576;DHT22;3829;50.798;4.358;2023-04-15T10:13:59;15.00;99.90
7576;DHT22;3829;50.798;4.358;2023-04-15T10:16:26;15.20;99.90
7576;DHT22;3829;50.798;4.358;2023-04-15T10:18:54;15.10;99.90
7576;DHT22;3829;50.798;4.358;2023-04-15T10:21:20;14.90;99.90
7576;DHT22;3829;50.798;4.358;2023-04-15T10:23:48;14.90;99.90
7576;DHT22;3829;50.798;4.358;2023-04-15T10:26:14;15.00;99.90
7576;DHT22;3829;50.798;4.358;2023-04-15T10:28:41;15.10;99.90
7576;DHT22;3829;50.798;4.358;2023-04-15T10:31:08;15.20;99.90
7576;DHT22;3829;50.798;4.358;2023-04-15T10:33:35;15.30;99.90
7576;DHT22;3829;50.798;4.358;2023-04-15T10:36:03;15.30;99.90
7576;DHT22;3829;50.798;4.358;2023-04-15T10:38:36;15.30;99.90
7576;DHT22;3829;50.798;4.358;2023-04-15T10:41:23;15.30;99.90
7576;DHT22;3829;50.798;4.358;2023-04-15T10:43:53;15.30;99.90
7576;DHT22;3829;50.798;4.358;2023-04-15T10:49:10;15.30;99.90
7576;DHT22;3829;50.798;4.358;2023-04-15T10:51:41;15.30;99.90
7576;DHT22;3829;50.798;4.358;2023-04-15T10:54:32;15.30;99.90
7576;DHT22;3829;50.798;4.358;2023-04-15T11:00:18;15.40;99.90
7576;DHT22;3829;50.798;4.358;2023-04-15T11:02:47;15.40;99.90
7576;DHT22;3829;50.798;4.358;2023-04-15T11:05:17;15.60;99.90
7576;DHT22;3829;50.798;4.358;2023-04-15T11:12:52;15.50;99.90
7576;DHT22;3829;50.798;4.358;2023-04-15T11:15:37;15.30;99.90
7576;DHT22;3829;50.798;4.358;2023-04-15T11:18:13;15.20;99.90
7576;DHT22;3829;50.798;4.358;2023-04-15T11:20:41;15.30;99.90
7576;DHT22;3829;50.798;4.358;2023-04-15T11:23:08;15.40;99.90
7576;DHT22;3829;50.798;4.358;2023-04-15T11:25:34;15.30;99.90
7576;DHT22;3829;50.798;4.358;2023-04-15T11:28:02;15.40;99.90
7576;DHT22;3829;50.798;4.358;2023-04-15T11:30:33;15.40;99.90
7576;DHT22;3829;50.798;4.358;2023-04-15T11:33:09;15.40;99.90
7576;DHT22;3829;50.798;4.358;2023-04-15T11:35:36;15.50;99.90
7576;DHT22;3829;50.798;4.358;2023-04-15T11:38:03;15.60;99.90
7576;DHT22;3829;50.798;4.358;2023-04-15T11:40:30;15.60;99.90
7576;DHT22;3829;50.798;4.358;2023-04-15T11:43:10;15.60;99.90
7576;DHT22;3829;50.798;4.358;2023-04-15T11:45:47;15.70;99.90
7576;DHT22;3829;50.798;4.358;2023-04-15T11:48:13;15.80;99.90
7576;DHT22;3829;50.798;4.358;2023-04-15T11:50:40;15.70;99.90
7576;DHT22;3829;50.798;4.358;2023-04-15T11:53:08;15.90;99.90
7576;DHT22;3829;50.798;4.358;2023-04-15T11:55:45;16.00;99.90
7576;DHT22;3829;50.798;4.358;2023-04-15T11:58:15;15.90;99.90
7576;DHT22;3829;50.798;4.358;2023-04-15T12:00:48;16.00;99.90
7576;DHT22;3829;50.798;4.358;2023-04-15T12:03:25;15.80;99.90
7576;DHT22;3829;50.798;4.358;2023-04-15T12:06:24;15.90;99.90
7576;DHT22;3829;50.798;4.358;2023-04-15T12:09:15;15.90;99.90
7576;DHT22;3829;50.798;4.358;2023-04-15T12:11:48;15.90;99.90
7576;DHT22;3829;50.798;4.358;2023-04-15T12:14:20;15.80;99.90
7576;DHT22;3829;50.798;4.358;2023-04-15T12:16:50;15.90;99.90
7576;DHT22;3829;50.798;4.358;2023-04-15T12:19:39;16.00;99.90
7576;DHT22;3829;50.798;4.358;2023-04-15T12:22:12;16.00;99.90
7576;DHT22;3829;50.798;4.358;2023-04-15T12:24:40;15.70;99.90
7576;DHT22;3829;50.798;4.358;2023-04-15T12:27:11;15.90;99.90
7576;DHT22;3829;50.798;4.358;2023-04-15T12:29:39;15.90;99.90
7576;DHT22;3829;50.798;4.358;2023-04-15T12:32:12;15.90;99.90
7576;DHT22;3829;50.798;4.358;2023-04-15T12:34:58;15.80;99.90
7576;DHT22;3829;50.798;4.358;2023-04-15T12:37:23;15.90;99.90
7576;DHT22;3829;50.798;4.358;2023-04-15T12:39:50;15.90;99.90
7576;DHT22;3829;50.798;4.358;2023-04-15T12:42:17;15.80;99.90
7576;DHT22;3829;50.798;4.358;2023-04-15T12:44:43;15.80;99.90
7576;DHT22;3829;50.798;4.358;2023-04-15T12:47:10;15.70;99.90
7576;DHT22;3829;50.798;4.358;2023-04-15T12:49:36;15.80;99.90
7576;DHT22;3829;50.798;4.358;2023-04-15T12:52:02;16.00;99.90
7576;DHT22;3829;50.798;4.358;2023-04-15T12:54:29;16.10;99.90
7576;DHT22;3829;50.798;4.358;2023-04-15T12:56:56;16.10;99.90
7576;DHT22;3829;50.798;4.358;2023-04-15T12:59:22;16.10;99.90
7576;DHT22;3829;50.798;4.358;2023-04-15T13:01:51;16.10;99.90
7576;DHT22;3829;50.798;4.358;2023-04-15T13:04:18;16.00;99.90
7576;DHT22;3829;50.798;4.358;2023-04-15T13:06:45;16.10;99.90
7576;DHT22;3829;50.798;4.358;2023-04-15T13:09:10;16.10;99.90
7576;DHT22;3829;50.798;4.358;2023-04-15T13:11:36;16.00;99.90
7576;DHT22;3829;50.798;4.358;2023-04-15T13:14:04;16.20;99.90
7576;DHT22;3829;50.798;4.358;2023-04-15T13:16:30;16.20;99.90
7576;DHT22;3829;50.798;4.358;2023-04-15T13:18:57;16.20;99.90
7576;DHT22;3829;50.798;4.358;2023-04-15T13:21:23;16.10;99.90
7576;DHT22;3829;50.798;4.358;2023-04-15T13:23:49;16.00;99.90
7576;DHT22;3829;50.798;4.358;2023-04-15T13:26:17;16.00;99.90
7576;DHT22;3829;50.798;4.358;2023-04-15T13:28:44;16.30;99.90
7576;DHT22;3829;50.798;4.358;2023-04-15T13:31:09;16.50;99.90
7576;DHT22;3829;50.798;4.358;2023-04-15T13:33:35;16.60;99.90
7576;DHT22;3829;50.798;4.358;2023-04-15T13:36:01;16.50;99.90
7576;DHT22;3829;50.798;4.358;2023-04-15T13:38:26;16.60;99.90
7576;DHT22;3829;50.798;4.358;2023-04-15T13:40:52;17.00;99.90
7576;DHT22;3829;50.798;4.358;2023-04-15T13:43:17;17.50;99.90
7576;DHT22;3829;50.798;4.358;2023-04-15T13:45:43;17.80;99.90
7576;DHT22;3829;50.798;4.358;2023-04-15T13:48:09;17.50;99.90
7576;DHT22;3829;50.798;4.358;2023-04-15T13:50:34;17.60;99.90
7576;DHT22;3829;50.798;4.358;2023-04-15T13:53:00;18.30;99.90
7576;DHT22;3829;50.798;4.358;2023-04-15T13:55:26;18.10;99.90
7576;DHT22;3829;50.798;4.358;2023-04-15T13:57:52;17.10;99.90
7576;DHT22;3829;50.798;4.358;2023-04-15T14:00:18;17.10;99.90
7576;DHT22;3829;50.798;4.358;2023-04-15T14:02:43;17.70;99.90
7576;DHT22;3829;50.798;4.358;2023-04-15T14:05:10;18.10;99.90
7576;DHT22;3829;50.798;4.358;2023-04-15T14:07:35;18.40;99.90
7576;DHT22;3829;50.798;4.358;2023-04-15T14:10:01;18.30;99.90
7576;DHT22;3829;50.798;4.358;2023-04-15T14:12:27;18.50;99.90
7576;DHT22;3829;50.798;4.358;2023-04-15T14:14:53;19.10;99.90
7576;DHT22;3829;50.798;4.358;2023-04-15T14:17:18;19.40;99.70
7576;DHT22;3829;50.798;4.358;2023-04-15T14:19:44;18.50;99.70
7576;DHT22;3829;50.798;4.358;2023-04-15T14:22:09;17.80;99.90
7576;DHT22;3829;50.798;4.358;2023-04-15T14:24:35;17.50;99.90
7576;DHT22;3829;50.798;4.358;2023-04-15T14:27:01;17.70;99.90
7576;DHT22;3829;50.798;4.358;2023-04-15T14:29:27;18.40;99.90
7576;DHT22;3829;50.798;4.358;2023-04-15T14:31:52;18.40;99.90
7576;DHT22;3829;50.798;4.358;2023-04-15T14:34:18;18.20;99.90
7576;DHT22;3829;50.798;4.358;2023-04-15T14:36:46;18.00;99.90
7576;DHT22;3829;50.798;4.358;2023-04-15T14:39:12;18.50;99.90
7576;DHT22;3829;50.798;4.358;2023-04-15T14:41:38;19.30;99.90
7576;DHT22;3829;50.798;4.358;2023-04-15T14:44:04;19.60;99.90
7576;DHT22;3829;50.798;4.358;2023-04-15T14:46:30;19.80;99.90
7576;DHT22;3829;50.798;4.358;2023-04-15T14:48:56;19.80;99.90
7576;DHT22;3829;50.798;4.358;2023-04-15T14:51:22;20.20;99.90
7576;DHT22;3829;50.798;4.358;2023-04-15T14:53:47;20.40;99.20
7576;DHT22;3829;50.798;4.358;2023-04-15T14:56:13;21.10;99.10
7576;DHT22;3829;50.798;4.358;2023-04-15T14:58:39;21.10;98.20
7576;DHT22;3829;50.798;4.358;2023-04-15T15:01:04;21.40;97.30
7576;DHT22;3829;50.798;4.358;2023-04-15T15:03:30;21.40;97.50
7576;DHT22;3829;50.798;4.358;2023-04-15T15:05:56;19.90;97.80
7576;DHT22;3829;50.798;4.358;2023-04-15T15:08:27;18.60;98.30
7576;DHT22;3829;50.798;4.358;2023-04-15T15:10:52;17.40;99.40
7576;DHT22;3829;50.798;4.358;2023-04-15T15:13:18;16.90;99.90
7576;DHT22;3829;50.798;4.358;2023-04-15T15:15:44;16.30;99.90
7576;DHT22;3829;50.798;4.358;2023-04-15T15:18:10;16.10;99.90
7576;DHT22;3829;50.798;4.358;2023-04-15T15:20:35;16.20;99.90
7576;DHT22;3829;50.798;4.358;2023-04-15T15:23:01;16.60;99.90
7576;DHT22;3829;50.798;4.358;2023-04-15T15:25:27;17.70;99.90
7576;DHT22;3829;50.798;4.358;2023-04-15T15:27:53;18.70;99.90
7576;DHT22;3829;50.798;4.358;2023-04-15T15:30:18;19.30;99.90
7576;DHT22;3829;50.798;4.358;2023-04-15T15:32:44;18.60;99.90
7576;DHT22;3829;50.798;4.358;2023-04-15T15:35:10;17.80;99.90
7576;DHT22;3829;50.798;4.358;2023-04-15T15:37:36;17.80;99.90
7576;DHT22;3829;50.798;4.358;2023-04-15T15:40:05;17.80;99.90
7576;DHT22;3829;50.798;4.358;2023-04-15T15:42:31;17.30;99.90
7576;DHT22;3829;50.798;4.358;2023-04-15T15:44:57;16.90;99.90
7576;DHT22;3829;50.798;4.358;2023-04-15T15:47:23;16.80;99.90
7576;DHT22;3829;50.798;4.358;2023-04-15T15:49:50;16.50;99.90
7576;DHT22;3829;50.798;4.358;2023-04-15T15:52:16;16.30;99.90
7576;DHT22;3829;50.798;4.358;2023-04-15T15:54:42;16.80;99.90
7576;DHT22;3829;50.798;4.358;2023-04-15T15:57:07;17.30;99.90
7576;DHT22;3829;50.798;4.358;2023-04-15T15:59:33;17.60;99.90
7576;DHT22;3829;50.798;4.358;2023-04-15T16:01:59;17.90;99.90
7576;DHT22;3829;50.798;4.358;2023-04-15T16:04:25;17.50;99.90
7576;DHT22;3829;50.798;4.358;2023-04-15T16:06:52;16.30;99.90
7576;DHT22;3829;50.798;4.358;2023-04-15T16:09:18;16.60;99.90
7576;DHT22;3829;50.798;4.358;2023-04-15T16:11:44;16.90;99.90
7576;DHT22;3829;50.798;4.358;2023-04-15T16:14:10;16.90;99.90
7576;DHT22;3829;50.798;4.358;2023-04-15T16:16:37;16.30;99.90